Time;durP1;ratioP1;P1;durP2;ratioP2;P2;SDS_P1;SDS_P2;PMS_P1;PMS_P2;Temp;Humidity;BMP_temperature;BMP_pressure;BME280_temperature;BME280_humidity;BME280_pressure;Samples;Min_cycle;Max_cycle;Signal;HPM_P1;HPM_P2
2021/12/08 00:01:00;;;;;;;9.50;4.20;;;;;;;;;;5050643;28;20112;-60
2021/12/08 00:03:28;;;;;;;11.40;4.15;;;;;;;;;;5050075;28;20737;-58
2021/12/08 00:05:54;;;;;;;11.38;4.43;;;3.90;99.90;;;;;;5065249;28;20048;-58
2021/12/08 00:08:22;;;;;;;10.15;4.03;;;;;;;;;;5041208;28;20051;-59
2021/12/08 00:13:27;;;;;;;11.05;4.35;;;;;;;;;;5050525;28;20041;-58
2021/12/08 00:15:58;;;;;;;10.48;4.10;;;;;;;;;;5048718;28;20049;-57
2021/12/08 00:18:27;;;;;;;11.00;4.40;;;;;;;;;;5050529;28;20045;-57
2021/12/08 00:20:55;;;;;;;10.00;4.68;;;;;;;;;;5045880;28;20048;-57
2021/12/08 00:23:22;;;;;;;9.38;4.20;;;;;;;;;;5051143;28;20106;-58
2021/12/08 00:25:48;;;;;;;10.43;4.38;;;;;;;;;;5047443;28;20037;-58
2021/12/08 00:28:15;;;;;;;11.82;4.65;;;3.80;99.90;;;;;;5050766;28;20488;-60
2021/12/08 00:30:44;;;;;;;12.02;4.10;;;;;;;;;;5044808;28;20052;-56
2021/12/08 00:33:11;;;;;;;11.43;4.43;;;;;;;;;;5024753;28;20096;-59
2021/12/08 00:35:38;;;;;;;11.00;4.75;;;;;;;;;;5045436;28;20037;-58
2021/12/08 00:38:04;;;;;;;13.13;4.70;;;;;;;;;;5050215;28;20095;-59
2021/12/08 00:40:31;;;;;;;12.73;4.85;;;;;;;;;;5044913;28;20049;-58
2021/12/08 00:42:57;;;;;;;9.48;4.55;;;;;;;;;;5068269;28;20459;-58
2021/12/08 00:45:24;;;;;;;12.13;5.20;;;;;;;;;;5053164;28;20048;-60
2021/12/08 00:47:51;;;;;;;11.88;4.82;;;;;;;;;;5053583;28;20029;-58
2021/12/08 00:50:18;;;;;;;11.73;5.60;;;;;;;;;;5053634;28;20044;-58
2021/12/08 00:52:44;;;;;;;11.43;5.88;;;;;;;;;;5051049;28;20045;-60
2021/12/08 00:55:12;;;;;;;11.23;4.82;;;;;;;;;;5053938;28;20144;-58
2021/12/08 00:57:38;;;;;;;9.20;5.05;;;;;;;;;;5047377;28;20080;-58
2021/12/08 01:00:08;;;;;;;10.80;5.10;;;;;;;;;;5051100;28;20135;-59
2021/12/08 01:02:39;;;;;;;10.40;5.43;;;;;;;;;;5052800;28;20447;-59
2021/12/08 01:05:05;;;;;;;10.75;5.30;;;;;;;;;;5061352;28;20113;-58
2021/12/08 01:07:31;;;;;;;10.35;5.25;;;;;;;;;;5055939;28;20044;-59
2021/12/08 01:09:57;;;;;;;11.98;5.80;;;;;;;;;;5048947;28;20037;-58
2021/12/08 01:12:23;;;;;;;11.07;6.13;;;;;;;;;;5035679;28;20623;-57
2021/12/08 01:14:48;;;;;;;12.60;6.20;;;3.90;99.90;;;;;;5049352;28;20041;-54
2021/12/08 01:17:14;;;;;;;12.20;6.30;;;4.00;99.90;;;;;;5053383;28;20775;-59
2021/12/08 01:19:40;;;;;;;12.80;6.18;;;4.00;99.90;;;;;;5035449;28;20056;-59
2021/12/08 01:22:06;;;;;;;16.92;6.55;;;;;;;;;;5035300;28;20033;-59
2021/12/08 01:24:32;;;;;;;12.82;5.97;;;;;;;;;;5052967;28;20433;-59
2021/12/08 01:26:58;;;;;;;12.57;6.15;;;;;;;;;;5043386;28;20036;-60
2021/12/08 01:29:24;;;;;;;14.70;6.15;;;;;;;;;;5046683;28;20125;-58
2021/12/08 01:31:51;;;;;;;10.40;6.05;;;;;;;;;;5034985;28;20069;-59
2021/12/08 01:34:17;;;;;;;11.23;7.07;;;;;;;;;;5029604;28;20542;-57
2021/12/08 01:36:43;;;;;;;10.60;6.57;;;;;;;;;;5052698;28;20041;-59
2021/12/08 01:39:09;;;;;;;12.00;6.82;;;4.20;99.90;;;;;;5051238;28;20392;-60
2021/12/08 01:41:35;;;;;;;13.73;6.63;;;3.80;99.90;;;;;;5052080;28;20037;-58
2021/12/08 01:46:48;;;;;;;14.52;7.40;;;;;;;;;;5052211;28;20041;-59
2021/12/08 01:49:14;;;;;;;14.93;7.00;;;;;;;;;;5052810;28;20033;-56
2021/12/08 01:51:40;;;;;;;10.85;6.25;;;;;;;;;;5051220;28;20040;-57
2021/12/08 01:54:06;;;;;;;12.45;6.88;;;;;;;;;;5051056;28;20044;-56
2021/12/08 01:56:33;;;;;;;12.90;6.65;;;;;;;;;;5051496;28;20111;-57
2021/12/08 01:59:00;;;;;;;14.40;6.97;;;;;;;;;;5052650;28;20411;-58
2021/12/08 02:01:27;;;;;;;14.98;7.78;;;;;;;;;;5042366;28;20041;-57
2021/12/08 02:03:53;;;;;;;10.43;6.88;;;;;;;;;;5045033;28;20538;-59
2021/12/08 02:06:20;;;;;;;13.15;7.25;;;;;;;;;;5051539;28;20124;-56
2021/12/08 02:08:47;;;;;;;13.10;7.40;;;;;;;;;;5049019;28;20041;-56
2021/12/08 02:11:13;;;;;;;11.63;7.18;;;;;;;;;;5050290;28;20116;-57
2021/12/08 02:13:40;;;;;;;14.68;7.85;;;;;;;;;;5052713;28;20075;-55
2021/12/08 02:16:10;;;;;;;13.68;7.72;;;3.90;99.90;;;;;;5046946;28;20526;-57
2021/12/08 02:18:37;;;;;;;13.18;8.25;;;4.10;99.90;;;;;;5065552;28;20032;-58
2021/12/08 02:21:20;;;;;;;14.52;7.82;;;;;;;;;;5054542;28;20130;-58
2021/12/08 02:23:46;;;;;;;13.48;7.63;;;;;;;;;;5047552;28;20071;-56
2021/12/08 02:26:12;;;;;;;12.05;7.43;;;;;;;;;;5051509;28;20098;-57
2021/12/08 02:28:38;;;;;;;16.05;8.07;;;;;;;;;;5044521;28;20110;-56
2021/12/08 02:31:08;;;;;;;12.63;8.02;;;;;;;;;;5033992;28;20051;-57
2021/12/08 02:50:04;;;;;;;14.88;8.63;;;;;;;;;;5042930;28;20048;-59
2021/12/08 02:52:30;;;;;;;13.35;9.60;;;;;;;;;;5042909;28;20488;-59
2021/12/08 02:55:03;;;;;;;15.10;8.75;;;4.50;99.90;;;;;;5050946;28;20044;-58
2021/12/08 02:57:28;;;;;;;13.73;9.18;;;4.50;99.90;;;;;;5044037;28;20037;-58
2021/12/08 02:59:54;;;;;;;13.77;9.25;;;;;;;;;;5047461;28;20040;-55
2021/12/08 03:02:21;;;;;;;12.82;9.23;;;4.00;99.90;;;;;;5049983;28;20056;-58
2021/12/08 03:04:47;;;;;;;13.05;9.57;;;;;;;;;;5050913;28;20048;-58
2021/12/08 03:07:13;;;;;;;15.63;9.82;;;;;;;;;;5016827;28;20041;-59
2021/12/08 03:09:39;;;;;;;15.02;10.27;;;;;;;;;;5052028;28;20124;-60
2021/12/08 03:12:05;;;;;;;13.93;9.80;;;;;;;;;;5051549;28;20048;-55
2021/12/08 03:14:31;;;;;;;15.95;10.50;;;;;;;;;;5048724;28;20094;-60
2021/12/08 03:17:00;;;;;;;16.60;10.45;;;;;;;;;;5047807;28;20443;-60
2021/12/08 03:19:26;;;;;;;14.35;9.73;;;;;;;;;;5038467;28;20116;-56
2021/12/08 03:21:55;;;;;;;14.38;10.52;;;;;;;;;;5045216;28;20040;-57
2021/12/08 03:24:29;;;;;;;16.85;10.05;;;4.70;99.90;;;;;;5057062;28;20052;-58
2021/12/08 03:29:36;;;;;;;15.50;10.27;;;4.50;99.90;;;;;;5045632;28;20113;-56
2021/12/08 03:32:08;;;;;;;15.90;10.63;;;;;;;;;;5051195;28;20068;-57
2021/12/08 03:34:38;;;;;;;18.75;11.90;;;4.80;99.90;;;;;;5043554;28;20037;-57
2021/12/08 03:37:09;;;;;;;15.70;10.88;;;5.30;99.90;;;;;;5051193;28;20045;-54
2021/12/08 03:39:38;;;;;;;17.23;10.98;;;5.50;99.90;;;;;;5045510;28;20694;-56
2021/12/08 03:42:04;;;;;;;14.05;9.32;;;4.80;99.90;;;;;;5049001;28;20048;-56
2021/12/08 03:44:31;;;;;;;17.27;11.50;;;;;;;;;;5058040;28;20376;-57
2021/12/08 03:47:01;;;;;;;18.73;10.93;;;4.80;99.90;;;;;;5050543;28;20037;-59
2021/12/08 03:49:27;;;;;;;15.43;9.95;;;;;;;;;;5008748;28;20037;-56
2021/12/08 03:51:56;;;;;;;17.10;11.00;;;;;;;;;;5050572;28;20116;-58
2021/12/08 03:54:22;;;;;;;18.38;11.32;;;;;;;;;;5049682;28;20079;-57
2021/12/08 03:56:48;;;;;;;17.73;11.20;;;;;;;;;;5062091;28;20044;-57
2021/12/08 03:59:14;;;;;;;18.65;11.50;;;;;;;;;;5048444;28;20571;-57
2021/12/08 04:01:40;;;;;;;16.00;11.05;;;5.00;99.90;;;;;;5050871;28;20041;-58
2021/12/08 04:04:08;;;;;;;17.80;11.52;;;;;;;;;;5049986;28;20136;-56
2021/12/08 04:06:47;;;;;;;15.88;10.68;;;;;;;;;;5050507;28;20033;-58
2021/12/08 04:09:19;;;;;;;18.77;12.05;;;5.60;99.90;;;;;;5048473;28;20504;-57
2021/12/08 04:11:46;;;;;;;20.08;11.52;;;;;;;;;;5050975;28;20091;-57
2021/12/08 04:14:17;;;;;;;17.88;10.80;;;4.80;99.90;;;;;;5049200;28;20033;-58
2021/12/08 04:16:53;;;;;;;19.65;11.93;;;;;;;;;;5051200;28;20040;-54
2021/12/08 04:19:20;;;;;;;17.02;11.18;;;;;;;;;;5053975;28;20090;-56
2021/12/08 04:21:47;;;;;;;17.50;11.18;;;4.70;99.90;;;;;;5047021;28;20048;-57
2021/12/08 04:24:14;;;;;;;15.45;10.80;;;;;;;;;;5051906;28;20499;-57
2021/12/08 04:26:43;;;;;;;17.20;11.10;;;;;;;;;;5057479;28;20542;-56
2021/12/08 04:29:09;;;;;;;17.25;10.75;;;5.30;99.90;;;;;;5052218;28;20047;-57
2021/12/08 04:31:37;;;;;;;18.35;11.45;;;;;;;;;;5035868;28;20033;-58
2021/12/08 04:34:05;;;;;;;16.92;11.55;;;;;;;;;;5057857;28;20120;-57
2021/12/08 04:36:40;;;;;;;14.60;10.52;;;4.80;99.90;;;;;;5053873;28;20084;-58
2021/12/08 04:39:14;;;;;;;15.82;11.10;;;;;;;;;;5054122;28;20040;-57
2021/12/08 04:41:45;;;;;;;18.90;12.30;;;;;;;;;;5029773;28;20032;-58
2021/12/08 04:52:14;;;;;;;19.83;11.70;;;;;;;;;;5051954;28;20041;-61
2021/12/08 05:00:42;;;;;;;17.67;12.07;;;;;;;;;;5052846;28;20049;-58
2021/12/08 05:03:25;;;;;;;17.30;11.68;;;;;;;;;;5050286;28;20577;-58
2021/12/08 05:08:41;;;;;;;20.98;12.02;;;;;;;;;;5046440;28;20040;-60
2021/12/08 05:11:13;;;;;;;16.17;11.10;;;;;;;;;;5053646;28;20116;-59
2021/12/08 05:13:40;;;;;;;19.17;11.82;;;5.40;99.90;;;;;;5036162;28;20044;-57
2021/12/08 05:16:06;;;;;;;21.00;12.23;;;;;;;;;;5041655;28;20106;-59
2021/12/08 05:18:36;;;;;;;16.17;10.80;;;5.50;99.90;;;;;;5053136;28;20618;-58
2021/12/08 05:21:05;;;;;;;18.63;12.02;;;;;;;;;;5050131;28;20037;-59
2021/12/08 05:23:49;;;;;;;16.38;11.35;;;5.80;99.90;;;;;;5052614;28;20041;-55
2021/12/08 05:26:20;;;;;;;17.65;10.75;;;;;;;;;;5053040;28;20045;-57
2021/12/08 05:28:48;;;;;;;17.25;10.55;;;5.60;99.90;;;;;;5052774;28;20033;-54
2021/12/08 05:31:17;;;;;;;17.45;10.68;;;;;;;;;;5036334;28;20045;-58
2021/12/08 05:33:44;;;;;;;14.70;9.32;;;;;;;;;;5063933;28;20037;-59
2021/12/08 05:36:11;;;;;;;13.85;9.93;;;;;;;;;;5034963;28;20128;-57
2021/12/08 05:38:38;;;;;;;13.77;9.77;;;;;;;;;;5057261;28;20029;-59
2021/12/08 05:41:18;;;;;;;16.17;10.25;;;;;;;;;;5060480;28;20040;-59
2021/12/08 05:43:45;;;;;;;13.70;9.38;;;5.00;99.90;;;;;;5049366;28;20443;-58
2021/12/08 05:46:11;;;;;;;16.35;10.02;;;;;;;;;;5050829;28;20045;-56
2021/12/08 05:48:38;;;;;;;15.23;9.73;;;;;;;;;;5051200;28;20032;-57
2021/12/08 05:51:12;;;;;;;14.55;8.80;;;4.90;99.90;;;;;;5052240;28;20047;-59
2021/12/08 05:53:39;;;;;;;15.80;8.45;;;;;;;;;;5050983;28;20036;-56
2021/12/08 05:56:06;;;;;;;14.07;8.52;;;;;;;;;;5032449;28;20059;-58
2021/12/08 05:58:32;;;;;;;16.50;8.43;;;;;;;;;;5029659;28;20053;-58
2021/12/08 06:01:01;;;;;;;14.07;8.93;;;;;;;;;;5049757;28;20032;-60
2021/12/08 06:03:27;;;;;;;19.38;11.30;;;;;;;;;;5050720;28;20064;-58
2021/12/08 06:05:55;;;;;;;21.90;11.98;;;5.50;99.90;;;;;;5048850;28;20052;-54
2021/12/08 06:08:22;;;;;;;18.02;10.93;;;5.30;99.90;;;;;;5051452;28;20041;-54
2021/12/08 06:10:48;;;;;;;15.40;9.32;;;5.40;99.90;;;;;;5029543;28;20045;-57
2021/12/08 06:13:15;;;;;;;17.05;9.07;;;;;;;;;;5050736;28;20040;-55
2021/12/08 06:15:43;;;;;;;21.05;10.73;;;;;;;;;;5052094;28;20045;-57
2021/12/08 06:18:10;;;;;;;16.27;10.85;;;4.60;99.90;;;;;;5051207;28;20052;-57
2021/12/08 06:20:36;;;;;;;18.95;10.18;;;;;;;;;;5049098;28;20079;-59
2021/12/08 06:23:02;;;;;;;15.75;9.65;;;;;;;;;;5033319;28;20087;-60
2021/12/08 06:25:28;;;;;;;17.85;9.25;;;5.20;99.90;;;;;;5051832;28;20041;-57
2021/12/08 06:27:55;;;;;;;18.05;8.98;;;;;;;;;;5050529;28;20486;-57
2021/12/08 06:30:22;;;;;;;19.08;10.05;;;;;;;;;;5052024;28;20036;-59
2021/12/08 06:32:48;;;;;;;17.38;8.50;;;;;;;;;;5034446;28;20048;-58
2021/12/08 06:35:19;;;;;;;21.20;8.40;;;;;;;;;;5038847;28;20057;-58
2021/12/08 06:37:45;;;;;;;15.45;7.97;;;;;;;;;;5052066;28;20045;-57
2021/12/08 06:40:23;;;;;;;18.42;8.02;;;;;;;;;;5050002;28;20041;-58
2021/12/08 06:42:51;;;;;;;16.08;8.00;;;;;;;;;;5044491;28;20443;-58
2021/12/08 06:45:20;;;;;;;13.18;7.47;;;;;;;;;;5059171;28;20038;-58
2021/12/08 06:47:46;;;;;;;16.38;7.70;;;;;;;;;;5051741;28;20452;-59
2021/12/08 06:50:17;;;;;;;16.30;7.47;;;4.90;99.90;;;;;;5051421;28;20076;-56
2021/12/08 06:52:43;;;;;;;15.18;7.65;;;;;;;;;;5050693;28;20076;-58
2021/12/08 06:55:10;;;;;;;15.48;8.07;;;;;;;;;;5051633;28;20403;-55
2021/12/08 06:57:47;;;;;;;12.52;6.85;;;4.80;99.90;;;;;;5050778;28;20036;-58
2021/12/08 07:00:23;;;;;;;23.25;7.60;;;;;;;;;;5050179;28;20087;-57
2021/12/08 07:03:18;;;;;;;17.40;7.43;;;;;;;;;;5049076;28;20037;-57
2021/12/08 07:06:04;;;;;;;14.90;6.57;;;;;;;;;;5048453;28;20041;-54
2021/12/08 07:08:31;;;;;;;15.32;7.00;;;;;;;;;;5050536;28;20560;-58
2021/12/08 07:10:57;;;;;;;12.57;6.30;;;;;;;;;;5050484;28;20079;-58
2021/12/08 07:13:25;;;;;;;12.18;6.38;;;;;;;;;;5050760;28;20099;-59
2021/12/08 07:15:54;;;;;;;10.65;6.35;;;;;;;;;;5052107;28;20033;-56
2021/12/08 07:18:43;;;;;;;16.08;6.93;;;;;;;;;;5048864;28;20511;-59
2021/12/08 07:21:12;;;;;;;11.07;5.80;;;5.40;99.90;;;;;;5047987;28;20044;-58
2021/12/08 07:23:44;;;;;;;10.80;6.30;;;;;;;;;;5043666;28;20033;-60
2021/12/08 07:26:12;;;;;;;12.55;5.72;;;;;;;;;;5044331;28;20045;-57
2021/12/08 07:28:40;;;;;;;13.93;6.22;;;5.70;99.90;;;;;;5047615;28;20045;-58
2021/12/08 07:31:32;;;;;;;11.07;5.40;;;;;;;;;;5033300;28;20045;-58
2021/12/08 07:34:03;;;;;;;13.23;6.10;;;;;;;;;;5044148;28;20262;-57
2021/12/08 07:36:30;;;;;;;10.23;5.38;;;;;;;;;;5072998;22;20048;-59
2021/12/08 07:38:59;;;;;;;12.10;6.15;;;5.40;99.90;;;;;;5044980;28;20057;-55
2021/12/08 07:41:37;;;;;;;10.68;6.07;;;;;;;;;;5001679;28;20073;-58
2021/12/08 07:44:07;;;;;;;9.60;5.22;;;5.80;99.90;;;;;;5028337;28;20515;-59
2021/12/08 07:46:42;;;;;;;13.15;5.20;;;;;;;;;;5033597;28;20042;-57
2021/12/08 07:49:10;;;;;;;13.45;5.45;;;;;;;;;;5031057;28;20446;-57
2021/12/08 07:51:42;;;;;;;9.18;4.88;;;;;;;;;;5032042;28;20034;-58
2021/12/08 07:54:09;;;;;;;11.52;4.72;;;5.80;99.90;;;;;;5035342;28;20046;-57
2021/12/08 07:56:36;;;;;;;11.88;4.97;;;;;;;;;;5035129;28;20512;-55
2021/12/08 07:59:05;;;;;;;11.25;4.88;;;5.50;99.90;;;;;;5025006;28;20041;-53
2021/12/08 08:01:33;;;;;;;9.73;4.63;;;;;;;;;;5035249;28;20037;-55
2021/12/08 08:03:59;;;;;;;11.88;4.97;;;;;;;;;;5014078;28;20053;-59
2021/12/08 08:06:31;;;;;;;9.65;4.75;;;;;;;;;;5041135;28;20055;-60
2021/12/08 08:08:57;;;;;;;10.02;4.30;;;;;;;;;;5040725;28;20515;-57
2021/12/08 08:11:31;;;;;;;12.60;4.38;;;;;;;;;;5027372;28;20495;-57
2021/12/08 08:13:57;;;;;;;8.70;4.13;;;;;;;;;;5048383;28;20033;-55
2021/12/08 08:16:25;;;;;;;10.35;4.22;;;;;;;;;;5025173;28;20041;-57
2021/12/08 08:18:57;;;;;;;9.63;3.65;;;;;;;;;;5032292;28;20046;-56
2021/12/08 08:21:25;;;;;;;7.28;3.45;;;;;;;;;;5036799;28;20041;-57
2021/12/08 08:23:52;;;;;;;8.63;4.38;;;;;;;;;;5037283;28;20068;-56
2021/12/08 08:26:19;;;;;;;8.80;3.60;;;;;;;;;;5041237;28;20044;-58
2021/12/08 08:28:49;;;;;;;8.85;4.00;;;5.40;99.90;;;;;;5039894;28;20130;-59
2021/12/08 08:31:27;;;;;;;9.60;4.28;;;5.00;99.90;;;;;;5041739;28;20048;-57
2021/12/08 08:33:53;;;;;;;7.88;3.70;;;;;;;;;;5043134;28;20412;-57
2021/12/08 08:36:23;;;;;;;8.23;3.55;;;5.20;99.90;;;;;;5037754;28;20048;-58
2021/12/08 08:38:55;;;;;;;9.32;3.42;;;;;;;;;;5034461;28;20439;-57
2021/12/08 08:41:27;;;;;;;8.90;3.42;;;;;;;;;;5016049;28;20503;-58
2021/12/08 08:43:54;;;;;;;11.27;4.45;;;;;;;;;;5051038;28;20186;-57
2021/12/08 08:46:24;;;;;;;11.82;3.45;;;;;;;;;;5042633;28;20048;-57
2021/12/08 08:48:57;;;;;;;9.85;3.45;;;4.40;99.90;;;;;;5050169;28;20519;-59
2021/12/08 08:51:48;;;;;;;7.63;3.15;;;5.40;99.90;;;;;;5033841;28;20033;-57
2021/12/08 08:54:20;;;;;;;8.80;3.20;;;;;;;;;;5034227;28;20052;-60
2021/12/08 08:56:50;;;;;;;11.90;3.45;;;;;;;;;;5016998;28;20041;-57
2021/12/08 08:59:19;;;;;;;7.82;3.40;;;;;;;;;;5029714;28;20040;-56
2021/12/08 09:01:49;;;;;;;9.70;3.40;;;5.40;99.90;;;;;;5034242;28;20037;-60
2021/12/08 09:04:20;;;;;;;12.57;2.90;;;5.30;99.90;;;;;;5015176;28;20406;-58
2021/12/08 09:06:51;;;;;;;7.93;2.65;;;5.00;99.90;;;;;;5016052;28;20128;-54
2021/12/08 09:09:30;;;;;;;10.10;3.40;;;5.00;99.90;;;;;;5037805;28;20045;-59
2021/12/08 09:12:09;;;;;;;7.53;3.45;;;4.40;99.90;;;;;;5024632;28;20038;-58
2021/12/08 09:14:37;;;;;;;10.63;3.30;;;;;;;;;;5026578;28;20041;-57
2021/12/08 09:17:11;;;;;;;8.82;3.35;;;;;;;;;;5033764;28;20033;-58
2021/12/08 09:19:43;;;;;;;10.07;3.53;;;5.20;99.90;;;;;;5001284;28;20341;-58
2021/12/08 09:22:12;;;;;;;8.88;3.00;;;;;;;;;;5024178;28;20491;-57
2021/12/08 09:24:46;;;;;;;10.13;3.22;;;5.60;99.90;;;;;;5041686;28;20114;-59
2021/12/08 09:27:14;;;;;;;9.00;2.97;;;;;;;;;;5043977;28;20037;-60
2021/12/08 09:29:45;;;;;;;8.48;2.75;;;;;;;;;;5041122;28;20555;-58
2021/12/08 09:32:24;;;;;;;10.40;2.97;;;5.40;99.90;;;;;;5048673;28;20035;-58
2021/12/08 09:34:58;;;;;;;10.15;3.25;;;5.80;99.90;;;;;;5043308;28;20124;-59
2021/12/08 09:37:27;;;;;;;8.70;3.28;;;;;;;;;;5049427;28;20604;-58
2021/12/08 09:39:55;;;;;;;10.07;3.03;;;;;;;;;;5050216;28;20040;-58
2021/12/08 09:42:37;;;;;;;7.20;3.15;;;;;;;;;;5046832;28;20069;-58
2021/12/08 09:45:14;;;;;;;8.32;3.05;;;5.70;99.90;;;;;;5032816;28;20064;-57
2021/12/08 09:47:41;;;;;;;11.18;3.30;;;;;;;;;;5040460;28;20404;-59
2021/12/08 09:50:10;;;;;;;9.23;3.22;;;;;;;;;;5050480;28;20507;-57
2021/12/08 09:52:36;;;;;;;11.95;3.10;;;;;;;;;;5044936;28;20029;-56
2021/12/08 09:55:04;;;;;;;9.45;3.53;;;;;;;;;;5050551;28;20431;-59
2021/12/08 09:57:30;;;;;;;8.55;3.55;;;;;;;;;;5047228;28;20112;-57
2021/12/08 09:59:56;;;;;;;11.52;3.25;;;;;;;;;;5029092;28;20064;-58
2021/12/08 10:02:32;;;;;;;7.13;2.92;;;5.30;99.90;;;;;;5015056;28;20045;-58
2021/12/08 10:04:59;;;;;;;12.48;3.85;;;;;;;;;;5019769;28;20086;-57
2021/12/08 10:07:27;;;;;;;10.07;3.38;;;;;;;;;;5032579;28;20033;-57
2021/12/08 10:09:53;;;;;;;9.45;3.63;;;;;;;;;;5039950;28;20083;-57
2021/12/08 10:12:19;;;;;;;10.80;3.60;;;;;;;;;;5027429;28;20118;-59
2021/12/08 10:14:46;;;;;;;9.55;3.45;;;;;;;;;;5038234;28;20041;-59
2021/12/08 10:17:13;;;;;;;6.88;3.20;;;;;;;;;;5038047;28;20041;-57
2021/12/08 10:19:39;;;;;;;9.45;4.15;;;5.30;99.90;;;;;;5035081;28;20041;-58
2021/12/08 10:22:22;;;;;;;15.35;5.13;;;5.70;99.90;;;;;;5040910;28;20404;-58
2021/12/08 10:25:06;;;;;;;17.85;6.22;;;;;;;;;;5039010;28;20042;-58
2021/12/08 10:27:34;;;;;;;12.50;5.00;;;;;;;;;;5040752;28;20446;-59
2021/12/08 10:30:19;;;;;;;10.63;3.50;;;;;;;;;;5044355;28;20036;-58
2021/12/08 10:32:45;;;;;;;;;;;;;;;;;;5048762;28;20048;-59
2021/12/08 10:35:38;;;;;;;10.48;3.95;;;;;;;;;;5039393;28;19921;-58
2021/12/08 10:38:04;;;;;;;14.68;3.40;;;;;;;;;;5029812;28;20102;-58
2021/12/08 10:40:30;;;;;;;12.70;4.13;;;;;;;;;;5039197;28;20045;-54
2021/12/08 10:42:56;;;;;;;8.98;2.90;;;;;;;;;;5050240;28;20037;-59
2021/12/08 10:45:27;;;;;;;7.80;2.90;;;5.60;99.90;;;;;;5044846;28;20030;-57
2021/12/08 10:47:59;;;;;;;9.75;3.78;;;;;;;;;;5038314;28;20515;-58
2021/12/08 10:56:00;;;;;;;11.30;3.08;;;;;;;;;;5044673;28;20045;-56
2021/12/08 10:58:30;;;;;;;10.13;3.88;;;;;;;;;;5047063;28;20148;-57
2021/12/08 11:00:58;;;;;;;10.45;3.88;;;;;;;;;;5033569;28;20052;-59
2021/12/08 11:03:24;;;;;;;9.77;3.05;;;;;;;;;;5042551;28;20068;-59
2021/12/08 11:05:52;;;;;;;7.32;2.70;;;;;;;;;;5042233;28;20033;-59
2021/12/08 11:08:27;;;;;;;12.02;3.20;;;;;;;;;;5037934;28;20408;-57
2021/12/08 11:10:55;;;;;;;13.95;3.92;;;;;;;;;;5034063;28;21177;-60
2021/12/08 11:13:24;;;;;;;6.70;3.10;;;;;;;;;;5029251;28;20044;-57
2021/12/08 11:15:58;;;;;;;10.02;3.47;;;;;;;;;;5036220;28;20037;-57
2021/12/08 11:18:26;;;;;;;10.25;3.83;;;;;;;;;;5030753;28;20522;-57
2021/12/08 11:20:54;;;;;;;13.80;4.38;;;;;;;;;;5030758;28;20041;-58
2021/12/08 11:23:38;;;;;;;11.60;3.83;;;;;;;;;;5033450;28;20063;-58
2021/12/08 11:26:10;;;;;;;12.65;3.30;;;;;;;;;;5030446;28;20145;-59
2021/12/08 11:28:35;;;;;;;7.40;3.13;;;6.40;99.90;;;;;;5032347;28;20033;-55
2021/12/08 11:31:04;;;;;;;7.35;3.65;;;;;;;;;;5047137;28;20534;-58
2021/12/08 11:33:30;;;;;;;11.13;3.35;;;;;;;;;;5042967;28;20110;-59
2021/12/08 11:36:08;;;;;;;8.32;3.80;;;6.80;99.90;;;;;;5042260;28;20041;-58
2021/12/08 11:38:34;;;;;;;10.88;3.65;;;;;;;;;;5039050;28;20040;-58
2021/12/08 11:41:00;;;;;;;9.13;4.28;;;6.30;99.90;;;;;;5044645;28;20033;-59
2021/12/08 11:43:30;;;;;;;8.80;3.97;;;;;;;;;;5043746;28;20037;-60
2021/12/08 11:46:12;;;;;;;7.82;3.30;;;;;;;;;;5040688;28;20138;-58
2021/12/08 11:48:49;;;;;;;7.75;3.42;;;;;;;;;;5038450;28;20041;-57
2021/12/08 11:51:15;;;;;;;9.50;3.97;;;6.40;99.90;;;;;;5044751;28;20045;-59
2021/12/08 11:53:42;;;;;;;9.43;4.07;;;;;;;;;;5046016;28;20359;-58
2021/12/08 11:56:34;;;;;;;8.93;3.88;;;6.20;99.90;;;;;;5048013;28;20062;-57
2021/12/08 11:59:01;;;;;;;8.85;4.57;;;6.80;99.90;;;;;;5045713;28;20411;-60
2021/12/08 12:01:27;;;;;;;9.18;3.97;;;;;;;;;;5025691;28;20453;-58
2021/12/08 12:03:53;;;;;;;10.93;4.10;;;6.30;99.90;;;;;;5031278;28;20120;-58
2021/12/08 12:06:27;;;;;;;9.80;3.72;;;;;;;;;;5024372;28;20159;-58
2021/12/08 12:08:53;;;;;;;8.23;3.63;;;;;;;;;;5030366;28;20048;-59
2021/12/08 12:11:19;;;;;;;8.15;3.58;;;;;;;;;;5033855;28;20075;-59
2021/12/08 12:13:46;;;;;;;8.65;3.72;;;;;;;;;;5030818;28;20474;-57
2021/12/08 12:16:12;;;;;;;10.05;4.72;;;6.20;99.90;;;;;;5030562;28;20045;-58
2021/12/08 12:18:38;;;;;;;8.32;3.95;;;;;;;;;;5024662;28;20038;-58
2021/12/08 12:21:14;;;;;;;7.60;3.65;;;;;;;;;;5030834;28;20427;-58
2021/12/08 12:23:58;;;;;;;6.95;3.55;;;;;;;;;;5030280;28;20076;-58
2021/12/08 12:26:31;;;;;;;8.10;3.50;;;;;;;;;;5030150;28;20520;-59
2021/12/08 12:29:23;;;;;;;8.75;3.80;;;6.30;99.90;;;;;;5013016;28;20504;-56
2021/12/08 12:31:53;;;;;;;8.25;3.65;;;5.70;99.90;;;;;;5011203;28;20497;-59
2021/12/08 12:34:27;;;;;;;8.50;4.07;;;;;;;;;;5024964;28;20034;-58
2021/12/08 12:36:53;;;;;;;6.97;3.58;;;6.20;99.90;;;;;;5030554;28;20041;-56
2021/12/08 12:39:28;;;;;;;8.20;3.25;;;6.00;99.90;;;;;;5033254;28;20514;-59
2021/12/08 12:42:11;;;;;;;9.00;3.38;;;;;;;;;;5033739;28;20435;-58
2021/12/08 12:44:39;;;;;;;7.00;3.42;;;;;;;;;;5033110;28;20037;-59
2021/12/08 12:47:08;;;;;;;9.13;3.97;;;;;;;;;;5033657;28;20042;-57
2021/12/08 12:49:34;;;;;;;7.75;3.45;;;;;;;;;;5036592;28;20040;-58
2021/12/08 12:52:04;;;;;;;8.63;2.88;;;5.90;99.90;;;;;;5033906;28;20064;-57
2021/12/08 12:54:30;;;;;;;9.32;3.42;;;;;;;;;;5032488;28;20389;-59
2021/12/08 12:56:57;;;;;;;9.40;3.63;;;;;;;;;;5021950;28;20599;-58
2021/12/08 12:59:27;;;;;;;10.23;3.65;;;6.80;99.90;;;;;;5030006;28;20088;-60
2021/12/08 13:02:05;;;;;;;10.23;3.75;;;;;;;;;;5034062;28;20076;-58
2021/12/08 13:04:34;;;;;;;6.78;3.67;;;6.90;99.90;;;;;;5026975;28;20069;-58
2021/12/08 13:07:06;;;;;;;11.93;4.55;;;7.00;99.90;;;;;;5029657;28;20493;-59
2021/12/08 13:09:35;;;;;;;8.02;3.47;;;;;;;;;;5032274;28;20125;-59
2021/12/08 13:12:12;;;;;;;8.18;4.10;;;;;;;;;;5027279;28;20077;-59
2021/12/08 13:14:39;;;;;;;7.75;3.80;;;;;;;;;;5045828;28;20041;-58
2021/12/08 13:17:10;;;;;;;9.63;3.30;;;;;;;;;;5043699;28;20140;-57
2021/12/08 13:19:40;;;;;;;7.18;3.10;;;;;;;;;;5027770;28;20459;-58
2021/12/08 13:22:06;;;;;;;6.75;2.83;;;;;;;;;;5048970;28;20037;-59
2021/12/08 13:24:32;;;;;;;8.35;3.30;;;;;;;;;;5051013;28;20116;-60
2021/12/08 13:27:02;;;;;;;8.48;2.97;;;;;;;;;;5049107;28;20124;-59
2021/12/08 13:29:31;;;;;;;5.88;2.80;;;;;;;;;;5027366;28;20398;-58
2021/12/08 13:32:10;;;;;;;8.63;2.70;;;;;;;;;;5046651;28;20561;-58
2021/12/08 13:34:38;;;;;;;7.60;2.90;;;8.40;99.90;;;;;;5046891;28;20049;-60
2021/12/08 13:37:14;;;;;;;8.40;2.88;;;;;;;;;;5032549;28;20079;-59
2021/12/08 13:39:43;;;;;;;7.78;3.83;;;;;;;;;;5045655;28;20043;-58
2021/12/08 13:42:29;;;;;;;7.22;2.72;;;7.90;99.90;;;;;;5049086;28;20120;-58
2021/12/08 13:44:54;;;;;;;6.80;2.90;;;7.70;99.90;;;;;;5050787;28;20432;-58
2021/12/08 13:47:27;;;;;;;5.82;2.60;;;;;;;;;;5048239;28;20041;-60
2021/12/08 13:49:55;;;;;;;8.88;2.95;;;;;;;;;;5037235;28;20033;-58
2021/12/08 13:52:26;;;;;;;9.45;3.55;;;7.30;99.90;;;;;;5032772;28;20041;-60
2021/12/08 13:54:55;;;;;;;7.10;2.47;;;8.40;99.90;;;;;;5015196;28;20116;-57
2021/12/08 13:57:30;;;;;;;9.35;3.13;;;;;;;;;;5032627;28;20030;-60
2021/12/08 14:00:01;;;;;;;8.18;3.13;;;;;;;;;;5037735;28;20033;-58
2021/12/08 14:02:31;;;;;;;7.47;3.47;;;;;;;;;;5024892;28;20033;-58
2021/12/08 14:05:06;;;;;;;7.97;3.78;;;;;;;;;;5045135;28;20519;-60
2021/12/08 14:07:33;;;;;;;10.82;4.60;;;;;;;;;;5047681;28;20041;-59
2021/12/08 14:10:00;;;;;;;10.57;4.35;;;;;;;;;;5047168;28;20033;-58
2021/12/08 14:13:00;;;;;;;10.85;4.03;;;8.20;99.90;;;;;;5043437;28;20037;-58
2021/12/08 14:15:32;;;;;;;11.60;4.88;;;;;;;;;;5044316;28;20087;-59
2021/12/08 14:18:14;;;;;;;13.88;4.22;;;;;;;;;;5024298;28;20049;-55
2021/12/08 14:20:42;;;;;;;8.43;3.55;;;7.90;99.90;;;;;;5040279;28;20045;-56
2021/12/08 14:23:08;;;;;;;9.35;3.42;;;;;;;;;;5044710;28;20550;-56
2021/12/08 14:25:39;;;;;;;9.23;3.70;;;;;;;;;;5041287;28;20033;-54
2021/12/08 14:28:24;;;;;;;9.35;3.80;;;;;;;;;;5049302;28;20087;-56
2021/12/08 14:30:50;;;;;;;9.73;3.50;;;;;;;;;;5044789;28;20043;-56
2021/12/08 14:33:22;;;;;;;9.05;3.50;;;;;;;;;;5033956;28;20076;-56
2021/12/08 14:35:59;;;;;;;10.13;3.42;;;7.20;99.90;;;;;;5005860;28;20052;-56
2021/12/08 14:38:25;;;;;;;10.15;3.30;;;;;;;;;;5041486;28;20049;-59
2021/12/08 14:40:52;;;;;;;7.85;3.22;;;;;;;;;;5046410;28;20569;-59
2021/12/08 14:43:47;;;;;;;8.80;2.97;;;;;;;;;;5048416;28;20495;-58
2021/12/08 14:46:18;;;;;;;;;;;6.40;99.90;;;;;;5043679;28;20119;-55
2021/12/08 14:49:16;;;;;;;8.90;3.05;;;;;;;;;;5037848;28;19933;-58
2021/12/08 14:51:43;;;;;;;7.22;3.03;;;;;;;;;;5033536;28;20045;-58
2021/12/08 14:54:12;;;;;;;8.65;2.75;;;;;;;;;;5047058;28;20049;-60
2021/12/08 14:56:38;;;;;;;7.53;2.72;;;;;;;;;;5045397;28;20512;-58
2021/12/08 14:59:05;;;;;;;8.13;2.60;;;6.70;99.90;;;;;;5030795;28;20046;-58
2021/12/08 15:01:31;;;;;;;6.43;2.45;;;6.60;99.90;;;;;;5045823;28;20040;-60
2021/12/08 15:03:57;;;;;;;8.35;2.78;;;6.40;99.90;;;;;;5045445;28;20067;-60
2021/12/08 15:06:23;;;;;;;6.38;2.47;;;;;;;;;;5040937;28;20484;-60